• Join FlightAware (Why Join?)
  • Login
  • US Flag 
11:23PM EDT


 

Airport Tracker/Info


-or-


 

Live Flight TrackerFlight Track Log ✈ SQH87 ✈ 18-Apr-2013 ✈ KHOT - KELD

Flight Track Log - Related Links

Times and Time Zones

All times are in EDT time to prevent confusion due to time zone crossing. See the SQH87 flight status page for this flight to view local times or setup timezone preferences in your user account.

Time Position Orientation Groundspeed Altitude Reporting Facility
EDT Latitude Longitude Course Direction KTS MPH feet Rate Location/Type
08:45AM 34.4097 -93.0961 180° South 251 289 4,000  Level Memphis Center
08:46AM 34.3767 -93.0900 171° South 178 205 5,500 1,500 Climbing Memphis Center
08:47AM 34.3433 -93.0814 168° South 151 174 7,100 1,500 Climbing Memphis Center
08:48AM 34.3081 -93.0803 179° South 138 159 8,600 1,380 Climbing Memphis Center
08:49AM 34.2686 -93.0692 167° South 138 159 9,900 780 Climbing Memphis Center
08:50AM 34.2208 -93.0575 169° South 150 173 10,200 -300 Climbing Memphis Center
08:51AM 34.1753 -93.0386 161° South 170 196 9,300 -900 Descending Memphis Center
08:52AM 34.1358 -93.0247 164° South 170 196 8,400 -1,260 Descending Memphis Center
08:54AM 34.0564 -93.0089 171° South 141 162 5,700 -1,200 Descending Fort Worth Center
08:55AM 34.0164 -92.9961 165° South 147 169 5,000 -360 Descending Fort Worth Center
08:56AM 33.9783 -92.9853 167° South 140 161 5,000  Level Fort Worth Center
08:57AM 33.9383 -92.9750 168° South 140 161 5,000  Level Fort Worth Center
08:58AM 33.9028 -92.9692 172° South 140 161 5,000  Level Fort Worth Center
08:59AM 33.8606 -92.9589 169° South 146 168 5,000  Level Fort Worth Center
09:00AM 33.8144 -92.9486 170° South 153 176 5,000  Level Fort Worth Center
09:01AM 33.7722 -92.9383 169° South 159 183 5,000  Level Fort Worth Center
09:02AM 33.7322 -92.9306 171° South 159 183 5,000  Level Fort Worth Center
09:03AM 33.6903 -92.9200 168° South 159 183 5,000 -300 Level Fort Worth Center
09:04AM 33.6503 -92.9097 168° South 159 183 4,500 -780 Descending Fort Worth Center
09:05AM 33.6186 -92.9039 171° South 141 162 3,500 -1,080 Descending Fort Worth Center
09:06AM 33.5869 -92.8956 168° South 129 148 2,400 -840 Descending Fort Worth Center
09:07AM 33.5514 -92.8872 169° South 123 142 1,900 -240 Descending Fort Worth Center
09:08AM 33.5156 -92.8792 169° South 130 150 2,000  Climbing Fort Worth Center
09:09AM 33.4758 -92.8739 174° South 135 155 1,900 -60 Descending Fort Worth Center
09:10AM 33.4397 -92.8606 163° South 135 155 1,900  Level Fort Worth Center
09:11AM 33.4019 -92.8528 170° South 140 161 1,900  Level Fort Worth Center
09:12AM 33.3642 -92.8447 170° South 140 161 1,900  Level Fort Worth Center